Time;durP1;ratioP1;P1;durP2;ratioP2;P2;SDS_P1;SDS_P2;PMS_P1;PMS_P2;Temp;Humidity;BMP_temperature;BMP_pressure;BME280_temperature;BME280_humidity;BME280_pressure;Samples;Min_cycle;Max_cycle;Signal;HPM_P1;HPM_P2
2022/11/22 00:00:40;;;;;;;69.47;40.75;;;2.90;99.90;;;;;;5079698;28;20040;-71
2022/11/22 00:03:07;;;;;;;71.10;40.65;;;2.90;99.90;;;;;;5069903;28;20505;-72
2022/11/22 00:05:34;;;;;;;69.32;39.72;;;2.90;99.90;;;;;;5070785;28;20055;-72
2022/11/22 00:07:59;;;;;;;42.13;14.57;;;2.90;99.90;;;;;;5070350;28;20047;-72
2022/11/22 00:10:25;;;;;;;71.97;41.05;;;2.90;99.90;;;;;;5068743;28;20044;-72
2022/11/22 00:12:53;;;;;;;71.95;40.72;;;2.80;99.90;;;;;;5065828;28;20037;-72
2022/11/22 00:15:18;;;;;;;66.90;39.28;;;2.80;99.90;;;;;;5070167;28;20466;-72
2022/11/22 00:17:44;;;;;;;70.68;39.05;;;2.80;99.90;;;;;;5069311;28;20080;-72
2022/11/22 00:20:10;;;;;;;71.70;39.40;;;2.80;99.90;;;;;;5068632;28;20074;-72
2022/11/22 00:22:36;;;;;;;73.78;41.85;;;2.80;99.90;;;;;;5070319;28;20452;-72
2022/11/22 00:25:02;;;;;;;75.55;40.90;;;2.80;99.90;;;;;;5069031;28;20040;-71
2022/11/22 00:27:28;;;;;;;72.35;40.05;;;2.80;99.90;;;;;;5068076;28;20064;-72
2022/11/22 00:29:54;;;;;;;75.72;38.95;;;2.80;99.90;;;;;;5063150;28;20040;-72
2022/11/22 00:32:19;;;;;;;33.47;15.85;;;2.80;99.90;;;;;;5069851;28;20044;-72
2022/11/22 00:34:45;;;;;;;85.28;42.42;;;2.80;99.90;;;;;;5068758;28;20083;-72
2022/11/22 00:37:11;;;;;;;80.38;43.70;;;2.80;99.90;;;;;;5070365;28;20048;-72
2022/11/22 00:39:36;;;;;;;81.07;42.70;;;2.80;99.90;;;;;;5069821;28;20048;-72
2022/11/22 00:42:02;;;;;;;74.22;41.97;;;2.80;99.90;;;;;;5069264;28;20059;-72
2022/11/22 00:44:28;;;;;;;76.63;42.60;;;2.80;99.90;;;;;;5070001;28;20053;-72
2022/11/22 00:46:54;;;;;;;81.28;43.28;;;2.80;99.90;;;;;;5064939;28;20072;-71
2022/11/22 00:49:19;;;;;;;80.80;40.92;;;2.80;99.90;;;;;;5064586;28;20493;-72
2022/11/22 00:51:45;;;;;;;86.13;43.63;;;2.80;99.90;;;;;;5064135;28;20044;-72
2022/11/22 00:54:10;;;;;;;81.47;44.75;;;2.80;99.90;;;;;;5069944;28;20037;-72
2022/11/22 00:56:36;;;;;;;77.20;42.25;;;2.80;99.90;;;;;;5069512;28;20044;-71
2022/11/22 00:59:02;;;;;;;31.13;14.60;;;2.80;99.90;;;;;;5078493;28;20080;-72
2022/11/22 01:01:27;;;;;;;86.00;43.80;;;2.80;99.90;;;;;;5072376;28;20094;-72
2022/11/22 01:03:53;;;;;;;87.05;44.05;;;2.80;99.90;;;;;;5058780;28;20101;-72
2022/11/22 01:06:19;;;;;;;90.75;42.70;;;2.80;99.90;;;;;;5069137;28;20040;-72
2022/11/22 01:08:45;;;;;;;83.13;43.10;;;2.80;99.90;;;;;;5058197;28;20835;-72
2022/11/22 01:11:13;;;;;;;82.60;42.22;;;2.80;99.90;;;;;;5067417;28;20421;-72
2022/11/22 01:13:38;;;;;;;79.60;40.07;;;2.90;99.90;;;;;;5067732;28;20346;-72
2022/11/22 01:16:07;;;;;;;82.47;42.95;;;2.90;99.90;;;;;;5068335;28;20044;-72
2022/11/22 01:18:33;;;;;;;85.68;43.22;;;2.90;99.90;;;;;;5071341;28;20036;-72
2022/11/22 01:20:59;;;;;;;77.22;40.60;;;2.90;99.90;;;;;;5084127;28;20091;-72
2022/11/22 01:23:25;;;;;;;100.57;43.85;;;3.00;99.90;;;;;;5084425;28;20158;-72
2022/11/22 01:25:50;;;;;;;76.88;42.83;;;3.00;99.90;;;;;;5067426;28;20397;-72
2022/11/22 01:28:16;;;;;;;74.13;41.75;;;3.00;99.90;;;;;;5053641;28;20048;-71
2022/11/22 01:30:42;;;;;;;82.53;45.13;;;3.00;99.90;;;;;;5068794;28;20063;-71
2022/11/22 01:33:08;;;;;;;88.03;43.83;;;3.00;99.90;;;;;;5068763;28;20048;-71
2022/11/22 01:35:34;;;;;;;90.78;44.92;;;3.00;99.90;;;;;;5075566;28;20083;-71
2022/11/22 01:38:00;;;;;;;82.63;41.03;;;3.10;99.90;;;;;;5058992;28;20088;-71
2022/11/22 01:40:26;;;;;;;77.68;43.47;;;3.10;99.90;;;;;;5064267;28;20422;-72
2022/11/22 01:42:54;;;;;;;74.65;42.13;;;3.10;99.90;;;;;;5068923;28;20053;-72
2022/11/22 01:45:29;;;;;;;;;;;3.10;99.90;;;;;;5067578;28;20052;-72
2022/11/22 01:48:21;;;;;;;79.32;40.97;;;3.10;99.90;;;;;;5062785;28;19932;-72
2022/11/22 01:50:51;;;;;;;83.15;42.40;;;3.10;99.90;;;;;;5066821;28;20511;-72
2022/11/22 01:53:23;;;;;;;73.07;40.63;;;3.10;99.90;;;;;;5063872;28;20048;-72
2022/11/22 01:55:51;;;;;;;73.88;42.13;;;3.10;99.90;;;;;;5066441;28;20459;-72
2022/11/22 01:58:18;;;;;;;75.88;41.97;;;3.20;99.90;;;;;;5068371;28;20105;-72
2022/11/22 02:00:44;;;;;;;30.60;16.45;;;3.20;99.90;;;;;;5067480;28;20045;-72
2022/11/22 02:03:12;;;;;;;69.72;39.30;;;3.20;99.90;;;;;;5068765;28;20401;-72
2022/11/22 02:05:38;;;;;;;22.70;11.88;;;3.20;99.90;;;;;;5066962;28;20055;-72
2022/11/22 02:08:27;;;;;;;70.93;39.95;;;3.20;99.90;;;;;;5066228;28;20515;-72
2022/11/22 02:10:55;;;;;;;70.28;40.97;;;3.20;99.90;;;;;;5065051;28;20123;-72
2022/11/22 02:13:23;;;;;;;65.68;38.80;;;3.20;99.90;;;;;;5068198;28;20110;-72
2022/11/22 02:15:50;;;;;;;34.53;14.60;;;3.20;99.90;;;;;;5065452;28;20048;-72
2022/11/22 02:18:16;;;;;;;66.93;40.43;;;3.20;99.90;;;;;;5050453;28;20110;-72
2022/11/22 02:20:42;;;;;;;80.25;42.67;;;3.20;99.90;;;;;;5067341;28;20748;-72
2022/11/22 02:23:31;;;;;;;75.07;40.25;;;3.20;99.90;;;;;;5067755;28;20516;-72
2022/11/22 02:25:59;;;;;;;75.68;40.95;;;3.20;99.90;;;;;;5064711;28;20115;-72
2022/11/22 02:28:27;;;;;;;77.30;42.70;;;3.20;99.90;;;;;;5059841;28;20041;-72
2022/11/22 02:30:53;;;;;;;77.53;40.92;;;3.20;99.90;;;;;;5065482;28;20065;-72
2022/11/22 02:33:18;;;;;;;72.88;39.90;;;3.20;99.90;;;;;;5066946;28;20401;-72
2022/11/22 02:35:44;;;;;;;76.75;42.00;;;3.20;99.90;;;;;;5066697;28;20052;-72
2022/11/22 02:38:14;;;;;;;87.28;41.38;;;3.20;99.90;;;;;;5066826;28;20047;-72
2022/11/22 02:40:50;;;;;;;76.05;41.15;;;3.20;99.90;;;;;;5067374;28;20056;-72
2022/11/22 02:43:19;;;;;;;79.18;42.63;;;3.20;99.90;;;;;;5064974;28;20047;-72
2022/11/22 02:45:45;;;;;;;76.90;41.85;;;3.20;99.90;;;;;;5067665;28;20057;-72
2022/11/22 02:48:14;;;;;;;83.40;43.53;;;3.20;99.90;;;;;;5064473;28;20056;-72
2022/11/22 02:50:40;;;;;;;81.10;44.13;;;3.20;99.90;;;;;;5066579;28;20501;-72
2022/11/22 02:53:07;;;;;;;76.78;42.00;;;3.30;99.90;;;;;;5067413;28;20054;-72
2022/11/22 02:55:32;;;;;;;81.47;43.20;;;3.30;99.90;;;;;;5065912;28;20451;-72
2022/11/22 02:57:58;;;;;;;80.20;43.60;;;3.30;99.90;;;;;;5065293;28;20040;-71
2022/11/22 03:00:24;;;;;;;79.97;42.55;;;3.30;99.90;;;;;;5065990;28;20408;-72
2022/11/22 03:02:50;;;;;;;71.25;41.30;;;3.30;99.90;;;;;;5067515;28;20052;-72
2022/11/22 03:05:16;;;;;;;33.97;15.95;;;3.30;99.90;;;;;;5067466;28;20044;-72
2022/11/22 03:07:41;;;;;;;74.15;42.53;;;3.30;99.90;;;;;;5066762;28;20378;-72
2022/11/22 03:10:07;;;;;;;88.18;44.60;;;3.30;99.90;;;;;;5066568;28;20044;-72
2022/11/22 03:12:33;;;;;;;77.30;42.40;;;3.30;99.90;;;;;;5065331;28;20044;-72
2022/11/22 03:14:59;;;;;;;83.05;41.10;;;3.40;99.90;;;;;;5065191;28;20044;-72
2022/11/22 03:17:24;;;;;;;77.95;40.63;;;3.30;99.90;;;;;;5067533;28;20053;-72
2022/11/22 03:19:50;;;;;;;76.47;42.80;;;3.30;99.90;;;;;;5066280;28;20417;-72
2022/11/22 03:22:15;;;;;;;83.85;41.95;;;3.30;99.90;;;;;;5064244;28;20075;-72
2022/11/22 03:24:41;;;;;;;77.32;41.97;;;3.30;99.90;;;;;;5064876;28;20409;-72
2022/11/22 03:27:06;;;;;;;31.95;11.93;;;3.30;99.90;;;;;;5066827;28;20082;-72
2022/11/22 03:29:32;;;;;;;73.00;41.70;;;3.30;99.90;;;;;;5064152;28;20052;-72
2022/11/22 03:31:58;;;;;;;83.80;43.45;;;3.30;99.90;;;;;;5065314;28;20064;-72
2022/11/22 03:34:23;;;;;;;86.75;46.33;;;3.30;99.90;;;;;;5068853;28;20389;-72
2022/11/22 03:36:49;;;;;;;81.28;43.47;;;3.40;99.90;;;;;;5071730;28;20044;-72
2022/11/22 03:39:15;;;;;;;86.55;42.90;;;3.30;99.90;;;;;;5071203;28;20052;-72
2022/11/22 03:41:40;;;;;;;75.63;41.97;;;3.30;99.90;;;;;;5065346;28;20378;-72
2022/11/22 03:44:06;;;;;;;37.05;17.08;;;3.30;99.90;;;;;;5069569;28;20044;-72
2022/11/22 03:46:32;;;;;;;26.45;12.45;;;3.40;99.90;;;;;;5067800;28;20045;-72
2022/11/22 03:48:57;;;;;;;80.53;43.35;;;3.30;99.90;;;;;;5070938;28;20052;-72
2022/11/22 03:51:23;;;;;;;75.22;38.78;;;3.30;99.90;;;;;;5069335;28;20109;-72
2022/11/22 03:53:48;;;;;;;82.15;44.00;;;3.30;99.90;;;;;;5069780;28;20040;-72
2022/11/22 03:56:14;;;;;;;78.57;42.45;;;3.40;99.90;;;;;;5067789;28;20545;-72
2022/11/22 03:58:40;;;;;;;84.63;42.72;;;3.40;99.90;;;;;;5070095;28;20521;-72
2022/11/22 04:01:05;;;;;;;85.43;43.53;;;3.40;99.90;;;;;;5069629;28;20118;-72
2022/11/22 04:03:31;;;;;;;72.15;41.03;;;3.40;99.90;;;;;;5070351;28;20045;-72
2022/11/22 04:05:57;;;;;;;90.22;40.92;;;3.50;99.90;;;;;;5069981;28;20064;-72
2022/11/22 04:08:23;;;;;;;69.30;39.03;;;3.50;99.90;;;;;;5069238;28;20040;-72
2022/11/22 04:10:49;;;;;;;75.85;40.80;;;3.50;99.90;;;;;;5056425;28;20060;-72
2022/11/22 04:13:15;;;;;;;69.45;38.30;;;3.50;99.90;;;;;;5067913;28;20040;-72
2022/11/22 04:15:41;;;;;;;35.40;15.57;;;3.60;99.90;;;;;;5067768;28;20477;-72
2022/11/22 04:18:09;;;;;;;65.32;36.22;;;3.50;99.90;;;;;;5069345;28;20044;-72
2022/11/22 04:23:21;;;;;;;68.32;38.28;;;3.60;99.90;;;;;;5072732;28;19920;-72
2022/11/22 04:25:49;;;;;;;64.30;39.35;;;3.60;99.90;;;;;;5079633;28;20036;-71
2022/11/22 04:28:17;;;;;;;75.50;38.78;;;3.60;99.90;;;;;;5072766;28;20513;-72
2022/11/22 04:33:28;;;;;;;64.78;39.33;;;3.60;99.90;;;;;;5072946;28;20052;-72
2022/11/22 04:35:54;;;;;;;78.18;38.58;;;3.60;99.90;;;;;;5065638;28;20053;-72
2022/11/22 04:38:20;;;;;;;66.03;38.90;;;3.70;99.90;;;;;;5062305;28;20765;-72
2022/11/22 04:40:46;;;;;;;72.00;39.38;;;3.70;99.90;;;;;;5064855;28;20067;-71
2022/11/22 04:46:13;;;;;;;70.53;39.67;;;3.70;99.90;;;;;;5071506;28;20109;-72
2022/11/22 04:48:39;;;;;;;71.28;39.63;;;3.70;99.90;;;;;;5068148;28;20513;-72
2022/11/22 04:53:50;;;;;;;73.65;38.08;;;3.70;99.90;;;;;;5072302;28;20052;-71
2022/11/22 04:56:16;;;;;;;73.20;41.00;;;3.80;99.90;;;;;;5071003;28;20051;-71
2022/11/22 04:58:42;;;;;;;62.22;38.08;;;3.80;99.90;;;;;;5073910;28;20162;-71
2022/11/22 05:01:10;;;;;;;72.45;38.13;;;3.80;99.90;;;;;;5069961;28;20112;-71
2022/11/22 05:03:36;;;;;;;69.28;39.97;;;3.80;99.90;;;;;;5073902;28;20135;-72
2022/11/22 05:06:04;;;;;;;72.72;38.25;;;3.80;99.90;;;;;;5069947;28;20123;-72
2022/11/22 05:08:30;;;;;;;61.88;36.65;;;3.80;99.90;;;;;;5073835;28;20036;-71
2022/11/22 05:10:56;;;;;;;68.38;36.67;;;3.90;99.90;;;;;;5074850;28;20052;-72
2022/11/22 05:13:31;;;;;;;70.80;35.53;;;3.90;99.90;;;;;;5078732;28;20459;-72
2022/11/22 05:15:58;;;;;;;57.42;35.25;;;3.90;99.90;;;;;;5050296;28;20059;-71
2022/11/22 05:18:24;;;;;;;70.07;38.90;;;3.90;99.90;;;;;;5067298;28;20037;-71
2022/11/22 05:20:50;;;;;;;66.70;37.53;;;3.90;99.90;;;;;;5063894;28;20486;-72
2022/11/22 05:26:00;;;;;;;65.05;34.50;;;3.90;99.90;;;;;;5077908;28;20464;-72
2022/11/22 05:28:28;;;;;;;61.85;35.95;;;3.90;99.90;;;;;;5069498;28;20133;-72
2022/11/22 05:30:54;;;;;;;71.80;35.63;;;4.00;99.90;;;;;;5067315;28;20056;-72
2022/11/22 05:33:19;;;;;;;63.35;35.47;;;4.00;99.90;;;;;;5061594;28;20052;-72
2022/11/22 05:35:45;;;;;;;63.72;36.90;;;4.00;99.90;;;;;;5070754;28;20048;-71
2022/11/22 05:38:11;;;;;;;67.00;35.95;;;4.00;99.90;;;;;;5073875;28;20123;-71
2022/11/22 05:40:36;;;;;;;67.85;36.47;;;4.00;99.90;;;;;;5070891;28;20218;-72
2022/11/22 05:43:02;;;;;;;63.80;35.33;;;4.00;99.90;;;;;;5069963;28;20045;-72
2022/11/22 05:45:33;;;;;;;55.28;33.40;;;4.00;99.90;;;;;;5051953;28;20048;-71
2022/11/22 05:47:59;;;;;;;62.08;34.60;;;4.00;99.90;;;;;;5066015;28;20409;-71
2022/11/22 05:50:25;;;;;;;62.47;35.75;;;4.10;99.90;;;;;;5071989;28;20147;-72
2022/11/22 05:52:51;;;;;;;66.70;36.63;;;4.10;99.90;;;;;;5073798;28;20174;-72
2022/11/22 05:55:16;;;;;;;61.83;34.92;;;4.10;99.90;;;;;;5075818;28;20051;-72
2022/11/22 05:57:42;;;;;;;76.25;36.63;;;4.10;99.90;;;;;;5075319;28;20408;-72
2022/11/22 06:00:08;;;;;;;62.78;35.67;;;4.10;99.90;;;;;;5076172;28;20040;-72
2022/11/22 06:02:34;;;;;;;37.05;12.95;;;4.10;99.90;;;;;;5070135;28;20446;-72
2022/11/22 06:04:59;;;;;;;67.20;37.42;;;4.10;99.90;;;;;;5078981;28;20173;-72
2022/11/22 06:07:25;;;;;;;62.42;35.95;;;4.10;99.90;;;;;;5074693;28;20040;-72
2022/11/22 06:09:50;;;;;;;69.43;36.58;;;4.10;99.90;;;;;;5073366;28;20059;-72
2022/11/22 06:12:16;;;;;;;63.10;35.50;;;4.10;99.90;;;;;;5072350;28;20409;-72
2022/11/22 06:14:43;;;;;;;61.97;36.33;;;4.10;99.90;;;;;;5075849;28;20036;-72
2022/11/22 06:17:09;;;;;;;68.75;35.85;;;4.20;99.90;;;;;;5066827;28;20103;-72
2022/11/22 06:19:34;;;;;;;60.20;34.88;;;4.20;99.90;;;;;;5074685;28;20489;-72
2022/11/22 06:22:00;;;;;;;62.72;33.95;;;4.20;99.90;;;;;;5079399;28;20401;-72
2022/11/22 06:24:26;;;;;;;58.65;33.30;;;4.20;99.90;;;;;;5067346;28;20086;-72
2022/11/22 06:26:52;;;;;;;59.30;34.78;;;4.20;99.90;;;;;;5081712;28;20056;-72
2022/11/22 06:29:17;;;;;;;67.45;35.53;;;4.20;99.90;;;;;;5066810;28;20055;-72
2022/11/22 06:31:44;;;;;;;61.05;33.72;;;4.20;99.90;;;;;;5066776;28;20475;-72
2022/11/22 06:34:13;;;;;;;63.63;35.22;;;4.20;99.90;;;;;;5066907;28;20132;-72
2022/11/22 06:36:39;;;;;;;60.72;32.95;;;4.20;99.90;;;;;;5051166;28;20084;-72
2022/11/22 06:39:04;;;;;;;71.60;35.17;;;4.30;99.90;;;;;;5068310;28;20126;-72
2022/11/22 06:41:33;;;;;;;66.85;36.63;;;4.20;99.90;;;;;;5065718;28;20390;-72
2022/11/22 06:43:58;;;;;;;59.85;34.58;;;4.20;99.90;;;;;;5055937;28;20138;-72
2022/11/22 06:46:25;;;;;;;66.57;33.72;;;4.20;99.90;;;;;;5066725;28;20084;-71
2022/11/22 06:48:51;;;;;;;59.65;34.67;;;4.20;99.90;;;;;;5067439;28;20480;-71
2022/11/22 06:51:25;;;;;;;60.00;36.17;;;4.30;99.90;;;;;;5067845;28;20181;-71
2022/11/22 06:53:54;;;;;;;70.70;38.17;;;4.20;99.90;;;;;;5053983;28;20394;-71
2022/11/22 06:56:20;;;;;;;67.82;35.45;;;4.30;99.90;;;;;;5064031;28;20074;-72
2022/11/22 06:58:48;;;;;;;57.28;35.08;;;4.30;99.90;;;;;;5063433;28;20185;-72
2022/11/22 07:01:20;;;;;;;59.47;33.55;;;4.40;99.90;;;;;;5067595;28;20168;-72
2022/11/22 07:03:46;;;;;;;61.72;33.50;;;4.40;99.90;;;;;;5066352;28;20072;-72
2022/11/22 07:06:13;;;;;;;63.33;34.10;;;4.40;99.90;;;;;;5066919;28;20045;-72
2022/11/22 07:08:40;;;;;;;60.60;34.47;;;4.40;99.90;;;;;;5066057;28;20063;-72
2022/11/22 07:11:14;;;;;;;68.78;37.65;;;4.50;99.90;;;;;;5065328;28;20084;-72
2022/11/22 07:13:40;;;;;;;66.32;36.70;;;4.50;99.90;;;;;;5066572;28;20438;-72
2022/11/22 07:16:08;;;;;;;71.53;37.88;;;4.50;99.90;;;;;;5067272;28;20055;-72
2022/11/22 07:18:34;;;;;;;59.72;34.13;;;4.50;99.90;;;;;;5059768;28;20057;-72
2022/11/22 07:21:08;;;;;;;66.00;35.15;;;4.50;99.90;;;;;;5067631;28;20108;-72
2022/11/22 07:23:33;;;;;;;66.40;34.58;;;4.50;99.90;;;;;;5066094;28;20132;-72
2022/11/22 07:25:59;;;;;;;68.25;35.05;;;4.50;99.90;;;;;;5068365;28;20462;-72
2022/11/22 07:28:25;;;;;;;63.88;33.38;;;4.60;99.90;;;;;;5074747;28;20052;-72
2022/11/22 07:30:51;;;;;;;58.05;34.08;;;4.60;99.90;;;;;;5064491;28;20538;-72
2022/11/22 07:33:17;;;;;;;64.93;34.28;;;4.60;99.90;;;;;;5062097;28;20421;-72
2022/11/22 07:35:42;;;;;;;58.67;32.47;;;4.70;99.90;;;;;;5064528;28;20131;-72
2022/11/22 07:38:10;;;;;;;65.60;34.20;;;4.70;99.90;;;;;;5054161;28;20040;-72
2022/11/22 07:40:37;;;;;;;53.33;30.70;;;4.80;99.90;;;;;;5066646;28;20397;-72
2022/11/22 07:43:02;;;;;;;72.70;35.58;;;4.80;99.90;;;;;;5066614;28;20298;-72
2022/11/22 07:45:28;;;;;;;55.03;32.17;;;4.80;99.90;;;;;;5064885;28;20056;-71
2022/11/22 07:47:53;;;;;;;51.67;28.48;;;4.80;99.90;;;;;;5066117;28;20076;-72
2022/11/22 07:50:19;;;;;;;62.20;30.33;;;4.90;99.90;;;;;;5064877;28;20540;-72
2022/11/22 07:52:45;;;;;;;52.78;26.60;;;4.90;99.90;;;;;;5066048;28;20048;-71
2022/11/22 07:55:11;;;;;;;62.95;26.40;;;4.90;99.90;;;;;;5064474;28;20037;-72
2022/11/22 07:57:37;;;;;;;46.22;22.88;;;5.00;99.90;;;;;;5069414;28;20825;-72
2022/11/22 08:00:04;;;;;;;43.15;20.40;;;5.00;99.90;;;;;;5070502;28;20059;-71
2022/11/22 08:02:30;;;;;;;56.63;21.25;;;5.00;99.90;;;;;;5065752;28;20032;-71
2022/11/22 08:04:56;;;;;;;43.10;19.75;;;5.10;99.90;;;;;;5074304;28;20048;-71
2022/11/22 08:07:21;;;;;;;37.53;18.20;;;5.10;99.90;;;;;;5075339;28;20059;-71
2022/11/22 08:09:47;;;;;;;43.55;18.48;;;5.20;99.90;;;;;;5080591;28;20105;-71
2022/11/22 08:12:13;;;;;;;30.73;17.08;;;5.20;99.90;;;;;;5071560;28;20560;-72
2022/11/22 08:14:38;;;;;;;40.45;18.42;;;5.20;99.90;;;;;;5077667;28;20055;-72
2022/11/22 08:17:04;;;;;;;32.78;16.63;;;5.20;99.90;;;;;;5078959;28;20109;-72
2022/11/22 08:19:30;;;;;;;41.00;17.80;;;5.30;99.90;;;;;;5064421;28;20041;-72
2022/11/22 08:21:56;;;;;;;36.90;15.68;;;5.30;99.90;;;;;;5062837;28;20073;-72
2022/11/22 08:24:21;;;;;;;30.88;14.60;;;5.30;99.90;;;;;;5065428;28;20084;-72
2022/11/22 08:26:47;;;;;;;47.38;15.25;;;5.30;99.90;;;;;;5071288;28;20044;-71
2022/11/22 08:29:13;;;;;;;31.85;14.50;;;5.30;99.90;;;;;;5064025;28;20784;-72
2022/11/22 08:31:39;;;;;;;31.88;12.07;;;5.30;99.90;;;;;;5066744;28;20119;-72
2022/11/22 08:34:05;;;;;;;21.35;11.10;;;5.30;99.90;;;;;;5061857;28;20052;-72
2022/11/22 08:36:31;;;;;;;34.03;12.55;;;5.30;99.90;;;;;;5069328;28;20464;-72
2022/11/22 08:38:57;;;;;;;43.08;12.48;;;5.30;99.90;;;;;;5069755;28;20052;-72
2022/11/22 08:41:24;;;;;;;36.58;11.65;;;5.40;99.90;;;;;;5065610;28;20109;-72
2022/11/22 08:43:51;;;;;;;23.75;10.85;;;5.40;99.90;;;;;;5070295;28;20045;-72
2022/11/22 08:46:18;;;;;;;28.73;11.15;;;5.40;99.90;;;;;;5065832;28;20077;-72
2022/11/22 08:48:44;;;;;;;27.80;10.45;;;5.40;99.90;;;;;;5056404;28;20424;-72
2022/11/22 08:51:12;;;;;;;47.28;10.50;;;5.40;99.90;;;;;;5065969;28;20040;-71
2022/11/22 08:53:41;;;;;;;17.98;8.48;;;5.50;99.90;;;;;;5077271;28;20131;-72
2022/11/22 08:56:09;;;;;;;25.08;9.68;;;5.40;99.90;;;;;;5079893;28;20089;-72
2022/11/22 08:58:35;;;;;;;21.30;8.15;;;5.50;99.90;;;;;;5078488;28;20048;-71
2022/11/22 09:01:13;;;;;;;28.42;10.07;;;5.50;99.90;;;;;;5069528;28;20128;-71
2022/11/22 09:03:39;;;;;;;18.23;8.07;;;5.50;99.90;;;;;;5064144;28;20137;-71
2022/11/22 09:06:08;;;;;;;24.60;9.23;;;5.50;99.90;;;;;;5047771;28;21007;-71
2022/11/22 09:08:34;;;;;;;27.25;8.85;;;5.50;99.90;;;;;;5069697;28;20055;-71
2022/11/22 09:11:01;;;;;;;38.85;9.63;;;5.50;99.90;;;;;;5062670;28;20106;-72
2022/11/22 09:13:28;;;;;;;24.52;7.97;;;5.50;99.90;;;;;;5078503;28;20535;-71
2022/11/22 09:15:53;;;;;;;24.40;9.50;;;5.60;99.90;;;;;;5078899;28;20044;-71
2022/11/22 09:18:19;;;;;;;21.20;8.52;;;5.60;99.90;;;;;;5081791;28;20124;-71
2022/11/22 09:20:44;;;;;;;24.73;8.95;;;5.60;99.90;;;;;;5059953;28;21740;-71
2022/11/22 09:23:10;;;;;;;27.90;8.77;;;5.60;99.90;;;;;;5065931;28;20029;-71
2022/11/22 09:25:36;;;;;;;27.58;11.30;;;5.70;99.90;;;;;;5065160;28;20041;-71
2022/11/22 09:28:02;;;;;;;22.50;8.68;;;5.70;99.90;;;;;;5071448;28;20045;-71
2022/11/22 09:30:28;;;;;;;25.42;9.55;;;5.80;99.90;;;;;;5069002;28;20115;-71
2022/11/22 09:32:54;;;;;;;29.38;8.75;;;5.90;99.90;;;;;;5065537;28;20048;-71
2022/11/22 09:35:19;;;;;;;25.50;7.57;;;5.90;99.90;;;;;;5060515;28;20045;-71
2022/11/22 09:37:46;;;;;;;19.80;8.27;;;6.00;99.90;;;;;;5067421;28;20045;-71
2022/11/22 09:40:12;;;;;;;27.40;9.00;;;6.10;99.90;;;;;;5073937;28;20044;-71
2022/11/22 09:42:38;;;;;;;24.50;8.20;;;6.20;99.90;;;;;;5061149;28;20072;-71
2022/11/22 09:45:19;;;;;;;29.27;9.13;;;6.20;99.90;;;;;;5065658;28;20960;-71
2022/11/22 09:48:19;;;;;;;20.20;8.00;;;6.30;99.90;;;;;;5060399;28;20052;-71
2022/11/22 09:50:56;;;;;;;15.50;7.43;;;6.40;99.90;;;;;;5071981;28;20075;-72
2022/11/22 09:53:28;;;;;;;32.28;7.88;;;6.40;99.90;;;;;;5063938;28;20048;-71
2022/11/22 09:55:58;;;;;;;25.92;8.05;;;6.40;99.90;;;;;;5069792;28;20119;-71
2022/11/22 09:58:27;;;;;;;18.00;7.55;;;6.50;99.90;;;;;;5062436;28;20482;-71
2022/11/22 10:01:00;;;;;;;18.35;8.55;;;6.50;99.90;;;;;;5063349;28;20055;-71
2022/11/22 10:03:39;;;;;;;17.23;6.55;;;6.50;99.90;;;;;;5054573;28;20134;-71
2022/11/22 10:06:12;;;;;;;16.70;7.82;;;6.50;99.90;;;;;;5065003;28;20055;-71
2022/11/22 10:09:10;;;;;;;24.40;6.88;;;6.60;99.90;;;;;;5073347;28;20040;-71
2022/11/22 10:11:44;;;;;;;36.15;7.80;;;6.60;99.90;;;;;;5062021;28;20064;-70
2022/11/22 10:14:40;;;;;;;15.00;7.82;;;6.60;99.90;;;;;;5063181;28;20450;-70
2022/11/22 10:17:16;;;;;;;24.80;7.05;;;6.60;99.90;;;;;;5064095;28;20814;-70
2022/11/22 10:20:06;;;;;;;26.27;6.65;;;6.60;99.90;;;;;;5062439;28;21563;-71
2022/11/22 10:22:34;;;;;;;16.52;6.57;;;6.70;99.90;;;;;;5078854;28;20041;-71
2022/11/22 10:25:03;;;;;;;20.27;7.20;;;6.70;99.90;;;;;;5075416;28;20523;-70
2022/11/22 10:27:31;;;;;;;25.00;6.57;;;6.70;99.90;;;;;;5071328;28;20532;-70
2022/11/22 10:29:57;;;;;;;;;;;6.70;99.90;;;;;;5075410;28;20093;-70
2022/11/22 10:32:41;;;;;;;22.25;6.47;;;6.70;99.90;;;;;;5066586;28;19920;-70
2022/11/22 10:35:34;;;;;;;19.17;5.78;;;6.70;99.90;;;;;;5074408;28;20123;-73
2022/11/22 10:38:26;;;;;;;15.90;6.82;;;6.80;99.90;;;;;;5060937;28;20048;-81
2022/11/22 10:41:09;;;;;;;16.88;6.93;;;6.80;99.90;;;;;;5061345;28;20110;-79
2022/11/22 10:43:49;;;;;;;14.85;6.05;;;6.80;99.90;;;;;;5065397;28;20054;-81
2022/11/22 10:46:34;;;;;;;16.38;6.38;;;6.80;99.90;;;;;;5063489;28;20044;-74
2022/11/22 10:49:06;;;;;;;23.20;7.50;;;6.90;99.90;;;;;;5061843;28;20049;-74
2022/11/22 10:51:45;;;;;;;15.70;6.68;;;6.90;99.90;;;;;;5068851;28;20056;-74
2022/11/22 10:54:23;;;;;;;16.13;5.90;;;6.90;99.90;;;;;;5068926;28;20052;-74
2022/11/22 10:56:58;;;;;;;18.40;6.60;;;7.00;99.90;;;;;;5076443;28;20080;-74
2022/11/22 10:59:36;;;;;;;19.13;6.28;;;7.10;99.90;;;;;;5075904;28;20051;-74
2022/11/22 11:02:13;;;;;;;15.53;5.50;;;7.10;99.90;;;;;;5076040;28;20048;-74
2022/11/22 11:04:40;;;;;;;16.30;5.68;;;7.10;99.90;;;;;;5072210;28;20307;-74
2022/11/22 11:07:16;;;;;;;16.33;5.28;;;7.10;99.90;;;;;;5068223;28;20508;-74
2022/11/22 11:09:51;;;;;;;12.10;6.65;;;7.20;99.90;;;;;;5065861;28;20155;-75
2022/11/22 11:12:22;;;;;;;26.73;5.13;;;7.20;99.90;;;;;;5065058;28;20044;-74
2022/11/22 11:14:54;;;;;;;14.98;4.57;;;7.30;99.90;;;;;;5069864;28;20131;-74
2022/11/22 11:17:40;;;;;;;14.82;4.50;;;7.30;99.90;;;;;;5074392;28;20060;-74
2022/11/22 11:20:22;;;;;;;22.55;5.60;;;7.50;99.90;;;;;;5067800;28;20106;-75
2022/11/22 11:22:47;;;;;;;18.58;6.50;;;7.50;99.90;;;;;;5058487;28;20041;-75
2022/11/22 11:25:39;;;;;;;15.57;5.68;;;7.50;99.90;;;;;;5060655;28;20053;-74
2022/11/22 11:28:21;;;;;;;12.35;4.95;;;7.50;99.90;;;;;;5065029;28;20067;-74
2022/11/22 11:31:40;;;;;;;20.00;5.93;;;7.50;99.90;;;;;;5063779;28;20056;-74
2022/11/22 11:34:21;;;;;;;13.02;5.47;;;7.50;99.90;;;;;;5055804;28;20041;-74
2022/11/22 11:36:49;;;;;;;16.08;5.45;;;7.50;99.90;;;;;;5052773;28;20045;-74
2022/11/22 11:39:26;;;;;;;14.37;5.57;;;7.50;99.90;;;;;;5065988;28;20131;-74
2022/11/22 11:41:52;;;;;;;14.57;4.60;;;7.50;99.90;;;;;;5065645;28;20047;-74
2022/11/22 11:44:27;;;;;;;13.75;5.70;;;7.50;99.90;;;;;;5065764;28;20694;-74
2022/11/22 11:46:53;;;;;;;16.73;5.13;;;7.50;99.90;;;;;;5045931;28;20130;-74
2022/11/22 11:49:25;;;;;;;29.15;5.63;;;7.50;99.90;;;;;;5073510;28;20078;-73
2022/11/22 11:52:00;;;;;;;20.95;5.88;;;7.50;99.90;;;;;;5081379;28;20049;-74
2022/11/22 11:54:47;;;;;;;15.63;6.15;;;7.50;99.90;;;;;;5074398;28;20044;-74
2022/11/22 11:57:14;;;;;;;14.23;4.95;;;7.50;99.90;;;;;;5080563;28;20043;-74
2022/11/22 11:59:40;;;;;;;15.57;4.72;;;7.50;99.90;;;;;;5058703;28;20051;-72
2022/11/22 12:02:15;;;;;;;11.48;4.93;;;7.50;99.90;;;;;;5070448;28;20757;-74
2022/11/22 12:04:49;;;;;;;9.45;4.88;;;7.50;99.90;;;;;;5071210;28;20110;-74
2022/11/22 12:07:22;;;;;;;8.50;4.88;;;7.60;99.90;;;;;;5070398;28;20040;-74
2022/11/22 12:09:49;;;;;;;12.48;5.47;;;7.60;99.90;;;;;;5070942;28;20091;-74
2022/11/22 12:12:43;;;;;;;25.42;5.57;;;7.60;99.90;;;;;;5072660;28;20091;-73
2022/11/22 12:15:21;;;;;;;18.98;5.43;;;7.50;99.90;;;;;;5079533;28;20036;-74
2022/11/22 12:18:13;;;;;;;11.60;4.55;;;7.50;99.90;;;;;;5070753;28;20056;-74
2022/11/22 12:20:50;;;;;;;12.45;4.80;;;7.40;99.90;;;;;;5070024;28;20048;-73
2022/11/22 12:23:49;;;;;;;13.57;5.63;;;7.50;99.90;;;;;;5069397;28;20525;-74
2022/11/22 12:26:15;;;;;;;15.45;5.40;;;7.50;99.90;;;;;;5078505;28;20124;-74
2022/11/22 12:28:41;;;;;;;20.85;5.10;;;7.50;99.90;;;;;;5079640;28;20463;-74
2022/11/22 12:31:12;;;;;;;11.25;4.80;;;7.50;99.90;;;;;;5070049;28;20048;-73
2022/11/22 12:33:43;;;;;;;7.05;4.38;;;7.50;99.90;;;;;;5069915;28;20525;-73
2022/11/22 12:36:40;;;;;;;14.15;4.15;;;7.50;99.90;;;;;;5069659;28;20053;-73
2022/11/22 12:39:13;;;;;;;19.42;4.90;;;7.50;99.90;;;;;;5057883;28;20048;-73
2022/11/22 12:41:41;;;;;;;17.95;5.32;;;7.50;99.90;;;;;;5067418;28;20041;-73
2022/11/22 12:44:11;;;;;;;13.60;6.95;;;7.50;99.90;;;;;;5069834;28;20067;-73
2022/11/22 12:46:40;;;;;;;9.88;4.60;;;7.50;99.90;;;;;;5072590;28;20518;-73
2022/11/22 12:49:24;;;;;;;10.20;4.00;;;7.50;99.90;;;;;;5073568;28;20654;-73
2022/11/22 12:52:00;;;;;;;12.65;5.18;;;7.40;99.90;;;;;;5068012;28;20097;-73
2022/11/22 12:54:41;;;;;;;10.57;5.28;;;7.40;99.90;;;;;;5071114;28;20044;-73
2022/11/22 12:57:18;;;;;;;7.03;4.50;;;7.50;99.90;;;;;;5073343;28;20049;-74
2022/11/22 13:00:01;;;;;;;13.32;3.88;;;7.50;99.90;;;;;;5073857;28;20036;-73
2022/11/22 13:02:33;;;;;;;7.28;3.35;;;7.40;99.90;;;;;;5071810;28;20052;-73
2022/11/22 13:05:19;;;;;;;23.70;5.18;;;7.50;99.90;;;;;;5074288;28;20040;-73